Time;durP1;ratioP1;P1;durP2;ratioP2;P2;SDS_P1;SDS_P2;PMS_P1;PMS_P2;Temp;Humidity;BMP_temperature;BMP_pressure;BME280_temperature;BME280_humidity;BME280_pressure;Samples;Min_cycle;Max_cycle;Signal;HPM_P1;HPM_P2
2021/12/06 00:02:15;;;;;;;36.25;20.63;;;3.40;99.90;;;;;;4956333;28;20054;-71
2021/12/06 00:04:40;;;;;;;37.40;20.65;;;3.40;99.90;;;;;;4972218;28;20634;-71
2021/12/06 00:07:09;;;;;;;32.60;17.88;;;3.80;99.90;;;;;;4955043;28;20149;-71
2021/12/06 00:09:35;;;;;;;35.45;18.70;;;3.30;99.90;;;;;;4976417;28;20038;-71
2021/12/06 00:12:03;;;;;;;36.25;18.58;;;3.30;99.90;;;;;;4984543;28;20066;-71
2021/12/06 00:14:33;;;;;;;38.78;20.88;;;3.40;99.90;;;;;;4971194;28;20047;-71
2021/12/06 00:17:02;;;;;;;38.17;19.25;;;3.30;99.90;;;;;;4955868;28;20073;-71
2021/12/06 00:19:29;;;;;;;37.22;19.70;;;3.30;99.90;;;;;;4971456;28;20550;-71
2021/12/06 00:21:55;;;;;;;36.88;19.70;;;3.40;99.90;;;;;;4959174;28;20089;-71
2021/12/06 00:24:21;;;;;;;36.33;19.23;;;3.30;99.90;;;;;;4974167;28;20046;-71
2021/12/06 00:26:47;;;;;;;42.58;21.50;;;3.30;99.90;;;;;;4974763;28;20160;-71
2021/12/06 00:29:13;;;;;;;38.60;20.55;;;3.30;99.90;;;;;;4972156;28;20599;-71
2021/12/06 00:31:39;;;;;;;38.83;20.88;;;3.30;99.90;;;;;;4958124;28;20182;-71
2021/12/06 00:34:10;;;;;;;42.35;22.35;;;3.30;99.90;;;;;;4957424;28;20146;-71
2021/12/06 00:36:39;;;;;;;41.80;21.27;;;3.30;99.90;;;;;;4961536;28;20049;-71
2021/12/06 00:39:08;;;;;;;37.45;20.13;;;3.30;99.90;;;;;;4971756;28;20050;-71
2021/12/06 00:41:34;;;;;;;40.80;21.27;;;3.40;99.90;;;;;;4989293;28;20049;-71
2021/12/06 00:44:01;;;;;;;38.25;19.73;;;3.30;99.90;;;;;;4967297;28;20046;-71
2021/12/06 00:46:27;;;;;;;38.40;19.58;;;3.30;99.90;;;;;;4959755;28;20414;-71
2021/12/06 00:48:53;;;;;;;39.88;21.15;;;3.30;99.90;;;;;;4976470;28;20057;-71
2021/12/06 00:51:19;;;;;;;38.55;19.30;;;3.30;99.90;;;;;;4964872;28;20430;-71
2021/12/06 00:53:45;;;;;;;38.55;18.45;;;3.30;99.90;;;;;;4963386;28;20399;-71
2021/12/06 00:56:11;;;;;;;38.58;20.25;;;3.30;99.90;;;;;;4982245;28;20503;-71
2021/12/06 00:58:37;;;;;;;42.80;20.90;;;3.30;99.90;;;;;;4971565;28;20047;-71
2021/12/06 01:01:05;;;;;;;41.58;21.13;;;3.30;99.90;;;;;;4986685;28;20042;-71
2021/12/06 01:03:34;;;;;;;40.55;20.13;;;3.30;99.90;;;;;;4960766;28;20046;-71
2021/12/06 01:06:01;;;;;;;38.47;19.67;;;3.40;99.90;;;;;;4958738;28;20058;-71
2021/12/06 01:08:26;;;;;;;46.17;21.40;;;3.30;99.90;;;;;;4977920;28;20057;-71
2021/12/06 01:10:53;;;;;;;42.28;20.42;;;3.30;99.90;;;;;;4957781;28;20035;-72
2021/12/06 01:13:20;;;;;;;39.65;21.05;;;3.30;99.90;;;;;;4978358;28;20059;-71
2021/12/06 01:15:47;;;;;;;43.08;21.33;;;3.30;99.90;;;;;;4972661;28;20068;-71
2021/12/06 01:18:15;;;;;;;46.80;20.85;;;3.30;99.90;;;;;;4973466;28;20050;-71
2021/12/06 01:20:50;;;;;;;40.55;20.60;;;3.30;99.90;;;;;;4986369;28;20046;-71
2021/12/06 01:23:19;;;;;;;44.03;21.35;;;3.30;99.90;;;;;;4957924;28;20047;-71
2021/12/06 01:25:56;;;;;;;41.47;21.02;;;3.30;99.90;;;;;;4957527;28;20429;-71
2021/12/06 01:31:02;;;;;;;41.28;21.13;;;3.30;99.90;;;;;;4958010;28;20157;-71
2021/12/06 01:41:25;;;;;;;40.25;19.95;;;3.30;99.90;;;;;;4973968;28;20126;-71
2021/12/06 01:44:14;;;;;;;41.13;21.80;;;3.30;99.90;;;;;;4975780;28;20069;-71
2021/12/06 01:46:44;;;;;;;45.70;22.40;;;3.30;99.90;;;;;;4972861;28;20524;-71
2021/12/06 01:49:10;;;;;;;44.28;20.83;;;3.30;99.90;;;;;;4968695;28;20169;-71
2021/12/06 01:51:36;;;;;;;46.97;23.48;;;3.30;99.90;;;;;;4959844;28;20609;-71
2021/12/06 01:54:03;;;;;;;40.70;21.65;;;3.40;99.90;;;;;;4975100;28;20117;-71
2021/12/06 01:56:29;;;;;;;49.72;23.70;;;3.30;99.90;;;;;;4960630;28;20034;-71
2021/12/06 01:58:55;;;;;;;44.72;21.77;;;3.30;99.90;;;;;;4965019;28;20483;-71
2021/12/06 02:01:20;;;;;;;47.08;23.52;;;3.30;99.90;;;;;;4979943;28;20085;-71
2021/12/06 02:03:46;;;;;;;43.25;21.92;;;3.30;99.90;;;;;;4969237;28;20434;-71
2021/12/06 02:06:15;;;;;;;46.67;22.65;;;3.30;99.90;;;;;;4975905;28;20105;-71
2021/12/06 02:08:41;;;;;;;45.35;22.48;;;3.30;99.90;;;;;;4975901;28;20059;-71
2021/12/06 02:11:07;;;;;;;48.75;22.67;;;3.30;99.90;;;;;;4961886;28;20043;-71
2021/12/06 02:13:48;;;;;;;48.20;22.70;;;3.30;99.90;;;;;;4958804;28;20549;-71
2021/12/06 02:16:15;;;;;;;49.72;24.45;;;3.40;99.90;;;;;;4970281;28;20628;-71
2021/12/06 02:18:49;;;;;;;48.85;22.80;;;3.30;99.90;;;;;;4955632;28;20059;-71
2021/12/06 02:21:32;;;;;;;44.63;22.27;;;3.40;99.90;;;;;;4976845;28;20047;-71
2021/12/06 02:24:01;;;;;;;52.83;24.55;;;3.40;99.90;;;;;;4960991;28;20074;-71
2021/12/06 02:26:26;;;;;;;49.97;23.83;;;3.30;99.90;;;;;;4956124;28;20054;-71
2021/12/06 02:28:52;;;;;;;47.20;22.90;;;3.30;99.90;;;;;;4974480;28;20389;-71
2021/12/06 02:31:21;;;;;;;44.20;23.60;;;3.40;99.90;;;;;;4985420;28;20034;-71
2021/12/06 02:33:48;;;;;;;50.92;23.00;;;3.40;99.90;;;;;;4987969;28;20375;-71
2021/12/06 02:36:15;;;;;;;44.70;20.50;;;3.40;99.90;;;;;;4972960;28;20171;-71
2021/12/06 02:38:41;;;;;;;47.40;23.45;;;3.40;99.90;;;;;;4989126;28;20042;-71
2021/12/06 02:41:08;;;;;;;47.30;22.92;;;3.40;99.90;;;;;;4962733;28;20398;-71
2021/12/06 02:43:35;;;;;;;52.22;25.05;;;3.40;99.90;;;;;;4989417;28;20078;-71
2021/12/06 02:46:01;;;;;;;46.80;23.00;;;3.40;99.90;;;;;;4982894;28;20038;-71
2021/12/06 02:48:26;;;;;;;46.20;21.95;;;3.40;99.90;;;;;;4979791;28;20101;-71
2021/12/06 02:50:55;;;;;;;48.38;22.15;;;3.40;99.90;;;;;;4975072;28;20133;-71
2021/12/06 02:53:24;;;;;;;42.33;20.90;;;3.40;99.90;;;;;;4958529;28;20038;-71
2021/12/06 02:55:54;;;;;;;41.83;22.50;;;3.40;99.90;;;;;;4969948;28;20051;-71
2021/12/06 03:01:08;;;;;;;42.35;20.85;;;3.40;99.90;;;;;;4960840;28;20141;-71
2021/12/06 03:03:35;;;;;;;41.97;21.23;;;3.40;99.90;;;;;;4964985;28;20618;-71
2021/12/06 03:06:01;;;;;;;42.45;21.58;;;3.40;99.90;;;;;;4959227;28;20065;-71
2021/12/06 03:08:47;;;;;;;44.58;22.25;;;3.40;99.90;;;;;;4957277;28;20577;-71
2021/12/06 03:11:21;;;;;;;45.15;21.60;;;3.40;99.90;;;;;;4956321;28;20061;-71
2021/12/06 03:13:48;;;;;;;46.45;22.63;;;3.40;99.90;;;;;;4974179;28;20379;-71
2021/12/06 03:16:14;;;;;;;40.80;21.20;;;3.40;99.90;;;;;;4970147;28;20076;-71
2021/12/06 03:18:45;;;;;;;44.65;22.17;;;3.40;99.90;;;;;;4968245;28;20037;-71
2021/12/06 03:21:12;;;;;;;40.97;20.42;;;3.30;99.90;;;;;;4985383;28;20078;-71
2021/12/06 03:23:38;;;;;;;41.08;20.10;;;3.70;99.90;;;;;;4973376;28;20038;-71
2021/12/06 03:26:05;;;;;;;41.80;21.13;;;3.30;99.90;;;;;;4986183;28;20110;-71
2021/12/06 03:28:39;;;;;;;41.47;20.25;;;3.40;99.90;;;;;;4963498;28;20045;-71
2021/12/06 03:31:06;;;;;;;42.37;20.70;;;3.40;99.90;;;;;;4964885;28;20402;-71
2021/12/06 03:33:35;;;;;;;46.17;22.13;;;3.30;99.90;;;;;;4985863;28;20061;-72
2021/12/06 03:36:02;;;;;;;43.78;21.20;;;3.30;99.90;;;;;;4954120;28;20124;-72
2021/12/06 03:38:28;;;;;;;38.92;19.92;;;3.30;99.90;;;;;;4985226;28;20061;-72
2021/12/06 03:40:53;;;;;;;41.15;20.33;;;3.30;99.90;;;;;;4959607;28;20039;-72
2021/12/06 03:43:19;;;;;;;43.60;21.30;;;3.40;99.90;;;;;;4958832;28;20116;-71
2021/12/06 03:45:45;;;;;;;48.30;22.63;;;3.40;99.90;;;;;;4958695;28;20121;-71
2021/12/06 03:48:10;;;;;;;49.95;23.05;;;3.40;99.90;;;;;;4955730;28;20077;-71
2021/12/06 03:50:36;;;;;;;44.10;20.75;;;3.40;99.90;;;;;;4972465;28;20058;-71
2021/12/06 03:53:02;;;;;;;52.53;23.13;;;3.40;99.90;;;;;;4973308;28;20046;-71
2021/12/06 03:55:27;;;;;;;50.38;22.67;;;3.30;99.90;;;;;;4961568;28;20047;-71
2021/12/06 03:57:53;;;;;;;45.50;21.10;;;3.40;99.90;;;;;;4961686;28;20129;-71
2021/12/06 04:00:19;;;;;;;49.17;23.60;;;3.30;99.90;;;;;;4968447;28;20398;-71
2021/12/06 04:02:45;;;;;;;47.95;23.10;;;3.40;99.90;;;;;;4963445;28;20125;-71
2021/12/06 04:05:11;;;;;;;41.35;20.33;;;3.40;99.90;;;;;;4965397;28;20047;-71
2021/12/06 04:07:36;;;;;;;43.85;21.13;;;3.40;99.90;;;;;;4955443;28;20039;-71
2021/12/06 04:10:05;;;;;;;39.85;19.33;;;3.40;99.90;;;;;;4959206;28;20912;-71
2021/12/06 04:12:31;;;;;;;47.38;21.27;;;3.40;99.90;;;;;;4960179;28;20059;-71
2021/12/06 04:14:58;;;;;;;43.05;21.20;;;3.40;99.90;;;;;;4979457;28;20043;-71
2021/12/06 04:17:24;;;;;;;47.53;21.95;;;3.40;99.90;;;;;;4970426;28;20474;-71
2021/12/06 04:19:50;;;;;;;44.00;21.05;;;3.40;99.90;;;;;;4972839;28;20039;-71
2021/12/06 04:22:18;;;;;;;47.47;23.17;;;3.40;99.90;;;;;;4987261;28;20061;-71
2021/12/06 04:24:44;;;;;;;46.45;21.92;;;3.40;99.90;;;;;;4977033;28;20380;-71
2021/12/06 04:27:14;;;;;;;51.03;24.23;;;3.40;99.90;;;;;;4961074;28;20047;-71
2021/12/06 04:29:47;;;;;;;40.78;20.23;;;3.40;99.90;;;;;;4959936;28;20118;-71
2021/12/06 04:32:13;;;;;;;48.03;22.02;;;3.40;99.90;;;;;;4959169;28;20125;-71
2021/12/06 04:34:39;;;;;;;50.17;24.25;;;3.40;99.90;;;;;;4971761;28;20395;-71
2021/12/06 04:37:05;;;;;;;49.50;22.75;;;3.40;99.90;;;;;;4971344;28;20104;-71
2021/12/06 04:39:31;;;;;;;48.80;20.95;;;3.40;99.90;;;;;;4981937;28;20038;-71
2021/12/06 04:41:56;;;;;;;49.95;22.45;;;3.40;99.90;;;;;;4978347;28;20403;-71
2021/12/06 04:44:22;;;;;;;47.15;21.38;;;3.40;99.90;;;;;;4977841;28;20092;-71
2021/12/06 04:46:49;;;;;;;46.72;22.45;;;3.40;99.90;;;;;;4975486;28;20049;-71
2021/12/06 04:49:15;;;;;;;48.17;22.92;;;3.40;99.90;;;;;;4977348;28;20395;-71
2021/12/06 04:51:43;;;;;;;55.45;24.00;;;3.40;99.90;;;;;;4973709;28;20045;-71
2021/12/06 04:54:09;;;;;;;49.47;23.25;;;3.30;99.90;;;;;;4971976;28;20050;-71
2021/12/06 04:56:42;;;;;;;45.30;22.60;;;3.40;99.90;;;;;;4958380;28;20417;-71
2021/12/06 04:59:29;;;;;;;50.70;21.45;;;3.40;99.90;;;;;;4972626;28;20059;-71
2021/12/06 05:01:59;;;;;;;46.28;20.73;;;3.40;99.90;;;;;;4974090;28;20054;-71
2021/12/06 05:04:31;;;;;;;44.95;20.23;;;3.40;99.90;;;;;;4985074;28;20039;-71
2021/12/06 05:07:09;;;;;;;44.45;20.13;;;3.40;99.90;;;;;;4982937;28;20117;-71
2021/12/06 05:09:37;;;;;;;50.10;22.52;;;3.40;99.90;;;;;;4977045;28;20035;-71
2021/12/06 05:12:04;;;;;;;44.75;20.55;;;3.40;99.90;;;;;;4978692;28;20062;-71
2021/12/06 05:14:31;;;;;;;43.25;21.40;;;3.40;99.90;;;;;;4985428;28;20506;-71
2021/12/06 05:16:56;;;;;;;50.33;22.75;;;3.40;99.90;;;;;;4971851;28;20375;-71
2021/12/06 05:19:22;;;;;;;45.25;20.95;;;3.40;99.90;;;;;;4967223;28;20057;-71
2021/12/06 05:21:49;;;;;;;44.05;20.20;;;3.40;99.90;;;;;;4971400;28;20042;-71
2021/12/06 05:24:17;;;;;;;45.30;20.27;;;3.40;99.90;;;;;;4959338;28;20509;-71
2021/12/06 05:26:44;;;;;;;45.17;19.95;;;3.40;99.90;;;;;;4974575;28;20047;-71
2021/12/06 05:29:11;;;;;;;47.83;21.27;;;3.30;99.90;;;;;;4975037;28;20046;-71
2021/12/06 05:31:41;;;;;;;46.08;21.02;;;3.40;99.90;;;;;;4962673;28;20137;-71
2021/12/06 05:34:16;;;;;;;46.53;21.40;;;3.40;99.90;;;;;;4980955;28;20409;-70
2021/12/06 05:36:42;;;;;;;58.75;22.15;;;3.30;99.90;;;;;;4959174;28;20487;-71
2021/12/06 05:39:09;;;;;;;54.78;24.05;;;3.40;99.90;;;;;;4973559;28;20118;-71
2021/12/06 05:41:35;;;;;;;48.95;23.30;;;3.30;99.90;;;;;;4978783;28;20047;-71
2021/12/06 05:44:02;;;;;;;51.83;22.60;;;3.30;99.90;;;;;;4964260;28;20054;-71
2021/12/06 05:46:27;;;;;;;53.17;21.75;;;3.40;99.90;;;;;;4970687;28;20462;-71
2021/12/06 05:48:53;;;;;;;53.22;23.80;;;3.40;99.90;;;;;;4971400;28;20049;-71
2021/12/06 05:51:19;;;;;;;51.30;22.67;;;3.40;99.90;;;;;;4973584;28;20043;-71
2021/12/06 05:53:45;;;;;;;54.97;20.88;;;3.40;99.90;;;;;;4961853;28;20138;-72
2021/12/06 05:56:11;;;;;;;48.58;23.08;;;3.40;99.90;;;;;;4967541;28;20042;-72
2021/12/06 05:58:37;;;;;;;45.53;20.13;;;3.40;99.90;;;;;;4983272;28;20039;-71
2021/12/06 06:01:04;;;;;;;53.13;22.40;;;3.30;99.90;;;;;;4974530;28;20046;-72
2021/12/06 06:03:29;;;;;;;49.78;21.70;;;3.40;99.90;;;;;;4967541;28;20062;-72
2021/12/06 06:05:55;;;;;;;49.25;20.38;;;3.30;99.90;;;;;;4967238;28;20067;-71
2021/12/06 06:08:21;;;;;;;48.28;21.45;;;3.30;99.90;;;;;;4956776;28;20054;-71
2021/12/06 06:10:50;;;;;;;53.90;22.10;;;3.30;99.90;;;;;;4960522;28;20391;-72
2021/12/06 06:13:17;;;;;;;49.13;21.95;;;3.30;99.90;;;;;;4973508;28;20074;-72
2021/12/06 06:15:44;;;;;;;48.72;20.45;;;3.30;99.90;;;;;;4966341;28;20085;-71
2021/12/06 06:18:10;;;;;;;53.40;23.80;;;3.40;99.90;;;;;;4972138;28;20129;-72
2021/12/06 06:20:51;;;;;;;47.30;21.55;;;3.40;99.90;;;;;;4970345;28;20131;-72
2021/12/06 06:23:18;;;;;;;54.53;22.92;;;3.30;99.90;;;;;;4976725;28;20045;-72
2021/12/06 06:25:44;;;;;;;51.75;23.65;;;3.30;99.90;;;;;;4967938;28;20038;-71
2021/12/06 06:28:10;;;;;;;50.50;21.27;;;3.30;99.90;;;;;;4974185;28;20503;-72
2021/12/06 06:30:36;;;;;;;52.97;22.17;;;3.30;99.90;;;;;;4961874;28;20086;-71
2021/12/06 06:33:03;;;;;;;45.65;20.90;;;3.30;99.90;;;;;;4972580;28;20510;-71
2021/12/06 06:35:30;;;;;;;56.58;23.48;;;3.30;99.90;;;;;;4970801;28;20043;-72
2021/12/06 06:37:56;;;;;;;49.20;21.40;;;3.30;99.90;;;;;;4983631;28;20616;-72
2021/12/06 06:40:22;;;;;;;56.42;23.38;;;3.30;99.90;;;;;;4983647;28;20053;-72
2021/12/06 06:42:48;;;;;;;51.72;23.05;;;3.30;99.90;;;;;;4978351;28;20042;-71
2021/12/06 06:45:18;;;;;;;53.17;22.95;;;3.30;99.90;;;;;;4981283;28;20051;-71
2021/12/06 06:47:44;;;;;;;58.65;23.52;;;3.30;99.90;;;;;;4957473;28;20117;-72
2021/12/06 06:50:10;;;;;;;53.97;22.52;;;3.30;99.90;;;;;;4981849;28;20538;-72
2021/12/06 06:52:36;;;;;;;53.88;21.20;;;3.30;99.90;;;;;;4984818;28;20582;-72
2021/12/06 06:55:04;;;;;;;46.53;20.80;;;3.30;99.90;;;;;;4982466;28;20499;-72
2021/12/06 06:57:30;;;;;;;54.80;21.83;;;3.30;99.90;;;;;;4973655;28;20053;-72
2021/12/06 06:59:56;;;;;;;53.83;22.20;;;3.30;99.90;;;;;;4976325;28;20054;-72
2021/12/06 07:02:22;;;;;;;52.50;20.45;;;3.30;99.90;;;;;;4970488;28;20057;-73
2021/12/06 07:04:48;;;;;;;51.97;21.30;;;3.30;99.90;;;;;;4978187;28;20042;-73
2021/12/06 07:07:14;;;;;;;55.95;22.63;;;3.30;99.90;;;;;;4971196;28;20039;-72
2021/12/06 07:09:42;;;;;;;53.75;23.50;;;3.30;99.90;;;;;;4979608;28;20053;-73
2021/12/06 07:12:14;;;;;;;54.40;21.38;;;3.30;99.90;;;;;;4972129;28;20422;-72
2021/12/06 07:14:39;;;;;;;54.72;22.92;;;3.30;99.90;;;;;;4958752;28;20137;-72
2021/12/06 07:17:05;;;;;;;54.22;20.67;;;3.30;99.90;;;;;;4981722;28;20078;-73
2021/12/06 07:19:30;;;;;;;57.00;23.48;;;3.30;99.90;;;;;;4974920;28;20053;-72
2021/12/06 07:21:57;;;;;;;54.58;21.10;;;3.30;99.90;;;;;;4973045;28;20034;-73
2021/12/06 07:24:23;;;;;;;56.20;22.67;;;3.30;99.90;;;;;;4979753;28;20045;-73
2021/12/06 07:26:49;;;;;;;49.00;20.60;;;3.30;99.90;;;;;;4974269;28;20042;-72
2021/12/06 07:29:14;;;;;;;51.83;22.52;;;3.30;99.90;;;;;;4976054;28;20505;-73
2021/12/06 07:31:40;;;;;;;61.00;24.05;;;3.30;99.90;;;;;;4974171;28;20498;-73
2021/12/06 07:34:05;;;;;;;47.05;19.77;;;3.30;99.90;;;;;;4970255;28;20058;-72
2021/12/06 07:36:31;;;;;;;54.10;22.55;;;3.30;99.90;;;;;;4963886;28;20049;-73
2021/12/06 07:38:57;;;;;;;56.78;22.60;;;3.30;99.90;;;;;;4969627;28;20053;-73
2021/12/06 07:41:24;;;;;;;57.13;23.67;;;3.30;99.90;;;;;;4974781;28;20045;-72
2021/12/06 07:43:49;;;;;;;49.15;20.52;;;3.30;99.90;;;;;;4955679;28;20530;-72
2021/12/06 07:46:16;;;;;;;51.22;20.92;;;3.30;99.90;;;;;;4973025;28;20109;-72
2021/12/06 07:48:42;;;;;;;49.15;21.58;;;3.30;99.90;;;;;;4976436;28;20043;-72
2021/12/06 07:51:08;;;;;;;52.75;21.17;;;3.40;99.90;;;;;;4976578;28;20049;-72
2021/12/06 07:53:35;;;;;;;50.70;20.33;;;3.30;99.90;;;;;;4966092;28;20501;-73
2021/12/06 07:56:01;;;;;;;58.92;22.92;;;3.30;99.90;;;;;;4983716;28;20034;-72
2021/12/06 07:58:28;;;;;;;47.53;21.02;;;3.30;99.90;;;;;;4972265;28;20047;-72
2021/12/06 08:00:55;;;;;;;61.17;23.17;;;3.40;99.90;;;;;;4957654;28;20105;-72
2021/12/06 08:03:22;;;;;;;59.10;22.77;;;3.40;99.90;;;;;;4945067;28;20050;-73
2021/12/06 08:05:50;;;;;;;58.58;22.65;;;3.40;99.90;;;;;;4956344;28;20054;-73
2021/12/06 08:08:22;;;;;;;54.17;21.48;;;3.40;99.90;;;;;;4964849;28;20590;-70
2021/12/06 08:10:50;;;;;;;56.67;22.85;;;3.40;99.90;;;;;;4977031;28;20030;-70
2021/12/06 08:13:19;;;;;;;50.25;21.58;;;3.40;99.90;;;;;;4976745;28;20065;-71
2021/12/06 08:15:45;;;;;;;57.53;22.42;;;3.40;99.90;;;;;;4974496;28;20502;-71
2021/12/06 08:18:11;;;;;;;65.75;24.80;;;3.40;99.90;;;;;;4978378;28;20035;-70
2021/12/06 08:20:38;;;;;;;58.28;23.30;;;3.40;99.90;;;;;;4977089;28;20053;-70
2021/12/06 08:23:05;;;;;;;59.20;22.90;;;3.40;99.90;;;;;;4954949;28;20562;-70
2021/12/06 08:25:31;;;;;;;50.53;21.23;;;3.40;99.90;;;;;;4972238;28;20046;-70
2021/12/06 08:27:57;;;;;;;56.85;21.70;;;3.50;99.90;;;;;;4952672;28;20486;-70
2021/12/06 08:30:25;;;;;;;50.13;20.98;;;3.40;99.90;;;;;;4971678;28;20062;-70
2021/12/06 08:32:53;;;;;;;48.35;20.60;;;3.50;99.90;;;;;;4967233;28;20051;-71
2021/12/06 08:35:19;;;;;;;53.17;20.92;;;3.40;99.90;;;;;;4974954;28;20049;-68
2021/12/06 08:37:46;;;;;;;53.97;22.98;;;3.40;99.90;;;;;;4972849;28;20042;-73
2021/12/06 08:40:13;;;;;;;50.55;20.50;;;3.40;99.90;;;;;;4956382;28;20061;-69
2021/12/06 08:42:38;;;;;;;44.00;20.15;;;3.50;99.90;;;;;;4966745;28;20061;-70
2021/12/06 08:45:05;;;;;;;38.78;17.77;;;3.50;99.90;;;;;;4971244;28;20050;-69
2021/12/06 08:47:31;;;;;;;44.25;18.50;;;3.50;99.90;;;;;;4973321;28;20517;-70
2021/12/06 08:49:56;;;;;;;45.33;18.55;;;3.50;99.90;;;;;;4954325;28;20043;-70
2021/12/06 08:52:22;;;;;;;48.83;18.92;;;3.50;99.90;;;;;;4951087;28;20066;-71
2021/12/06 08:54:48;;;;;;;39.97;18.05;;;3.50;99.90;;;;;;4953445;28;20042;-71
2021/12/06 08:57:14;;;;;;;44.17;18.60;;;3.50;99.90;;;;;;4960096;28;20050;-71
2021/12/06 08:59:40;;;;;;;41.90;17.77;;;3.50;99.90;;;;;;4973549;28;20599;-71
2021/12/06 09:02:05;;;;;;;43.35;18.85;;;3.50;99.90;;;;;;4951630;28;20058;-71
2021/12/06 09:04:36;;;;;;;38.70;18.15;;;3.50;99.90;;;;;;4950716;28;20054;-71
2021/12/06 09:07:10;;;;;;;42.10;19.15;;;3.60;99.90;;;;;;4955084;28;20052;-71
2021/12/06 09:09:37;;;;;;;40.75;18.42;;;3.70;99.90;;;;;;4976471;28;20072;-71
2021/12/06 09:12:03;;;;;;;47.63;19.02;;;3.60;99.90;;;;;;4969362;28;20092;-71
2021/12/06 09:14:29;;;;;;;41.88;17.63;;;3.50;99.90;;;;;;4975321;28;20146;-70
2021/12/06 09:16:55;;;;;;;38.42;17.63;;;3.60;99.90;;;;;;4959312;28;20096;-71
2021/12/06 09:19:20;;;;;;;38.45;17.40;;;3.60;99.90;;;;;;4962350;28;20042;-71
2021/12/06 09:21:46;;;;;;;43.72;19.33;;;3.60;99.90;;;;;;4970719;28;20417;-71
2021/12/06 09:24:19;;;;;;;41.92;20.13;;;3.60;99.90;;;;;;4957442;28;20054;-71
2021/12/06 09:26:47;;;;;;;40.20;17.65;;;3.60;99.90;;;;;;4972531;28;20053;-70
2021/12/06 09:29:13;;;;;;;38.35;16.10;;;3.60;99.90;;;;;;4959431;28;20050;-70
2021/12/06 09:31:40;;;;;;;40.17;17.15;;;3.60;99.90;;;;;;4971932;28;20042;-71
2021/12/06 09:34:06;;;;;;;35.17;16.00;;;3.60;99.90;;;;;;4952968;28;20054;-72
2021/12/06 09:36:33;;;;;;;42.20;17.77;;;3.60;99.90;;;;;;4955749;28;20050;-71
2021/12/06 09:38:59;;;;;;;40.33;19.33;;;3.70;99.90;;;;;;4970669;28;20186;-71
2021/12/06 09:41:27;;;;;;;32.10;16.13;;;3.60;99.90;;;;;;4968756;28;20081;-70
2021/12/06 09:43:57;;;;;;;33.72;16.13;;;3.60;99.90;;;;;;4949951;28;20082;-71
2021/12/06 09:46:23;;;;;;;38.75;16.98;;;3.80;99.90;;;;;;4957903;28;20466;-71
2021/12/06 09:48:50;;;;;;;38.78;17.00;;;3.60;99.90;;;;;;4973082;28;20066;-71
2021/12/06 09:51:21;;;;;;;37.00;17.33;;;3.60;99.90;;;;;;4956210;28;20142;-71
2021/12/06 09:53:48;;;;;;;35.90;17.60;;;3.70;99.90;;;;;;4947036;28;20046;-70
2021/12/06 09:56:24;;;;;;;39.55;17.80;;;3.70;99.90;;;;;;4976324;28;20050;-71
2021/12/06 09:58:51;;;;;;;38.90;18.40;;;3.70;99.90;;;;;;4971630;28;20046;-71
2021/12/06 10:01:21;;;;;;;35.90;15.73;;;3.70;99.90;;;;;;4971758;28;20654;-71
2021/12/06 10:03:48;;;;;;;34.20;15.50;;;3.60;99.90;;;;;;4943280;28;20050;-71
2021/12/06 10:06:16;;;;;;;33.00;14.80;;;3.50;99.90;;;;;;4971553;28;20161;-71
2021/12/06 10:08:45;;;;;;;37.17;17.35;;;3.40;99.90;;;;;;4955539;28;20050;-71
2021/12/06 10:11:14;;;;;;;32.53;16.33;;;3.30;99.90;;;;;;4954177;28;20057;-71
2021/12/06 10:13:40;;;;;;;34.17;16.35;;;3.30;99.90;;;;;;4948900;28;20533;-70
2021/12/06 10:16:07;;;;;;;36.00;16.08;;;3.20;99.90;;;;;;4949365;28;20886;-70
2021/12/06 10:18:33;;;;;;;34.45;15.52;;;3.30;99.90;;;;;;4951844;28;20054;-70
2021/12/06 10:21:00;;;;;;;32.63;14.40;;;3.40;99.90;;;;;;4953227;28;20042;-70
2021/12/06 10:23:26;;;;;;;35.83;16.20;;;3.40;99.90;;;;;;4947852;28;20063;-70
2021/12/06 10:25:53;;;;;;;37.08;17.05;;;3.40;99.90;;;;;;4950697;28;20047;-70
2021/12/06 10:28:23;;;;;;;35.70;16.92;;;3.50;99.90;;;;;;4955347;28;20098;-70
2021/12/06 10:30:56;;;;;;;36.03;16.27;;;3.40;99.90;;;;;;4949622;28;20058;-72
2021/12/06 10:33:26;;;;;;;36.83;17.10;;;3.50;99.90;;;;;;4947852;28;20046;-71
2021/12/06 10:35:55;;;;;;;35.90;16.58;;;3.50;99.90;;;;;;4950333;28;20062;-71
2021/12/06 10:38:23;;;;;;;38.80;17.55;;;3.40;99.90;;;;;;4954111;28;20059;-70
2021/12/06 10:40:54;;;;;;;38.35;17.60;;;3.50;99.90;;;;;;4954746;28;20126;-71
2021/12/06 10:43:20;;;;;;;42.60;17.27;;;3.40;99.90;;;;;;4947657;28;20055;-70
2021/12/06 10:45:48;;;;;;;43.20;17.95;;;3.40;99.90;;;;;;4950860;28;20260;-70
2021/12/06 10:48:18;;;;;;;41.97;17.42;;;3.40;99.90;;;;;;4953071;28;20078;-71
2021/12/06 10:50:56;;;;;;;49.70;20.83;;;3.40;99.90;;;;;;4953811;28;20142;-72
2021/12/06 10:53:37;;;;;;;48.00;18.88;;;3.30;99.90;;;;;;4946073;28;20039;-70
2021/12/06 10:56:14;;;;;;;44.67;20.38;;;3.30;99.90;;;;;;4953079;28;20074;-69
2021/12/06 10:58:40;;;;;;;52.40;21.98;;;3.30;99.90;;;;;;4951935;28;20066;-70
2021/12/06 11:01:11;;;;;;;54.97;23.55;;;3.40;99.90;;;;;;4952066;28;20055;-69
2021/12/06 11:03:42;;;;;;;55.78;23.83;;;3.40;99.90;;;;;;4941395;28;20166;-69
2021/12/06 11:06:13;;;;;;;50.70;20.67;;;3.30;99.90;;;;;;4951792;28;20108;-69
2021/12/06 11:08:43;;;;;;;52.78;23.15;;;3.40;99.90;;;;;;4951991;28;20050;-70
2021/12/06 11:11:23;;;;;;;44.17;18.98;;;3.40;99.90;;;;;;4952209;28;20059;-70
2021/12/06 11:13:55;;;;;;;47.22;17.88;;;3.40;99.90;;;;;;4926073;28;20044;-69
2021/12/06 11:16:24;;;;;;;45.17;19.63;;;3.40;99.90;;;;;;4929220;28;20047;-69
2021/12/06 11:18:53;;;;;;;42.03;18.50;;;3.40;99.90;;;;;;4930837;28;20098;-70
2021/12/06 11:21:20;;;;;;;39.28;17.27;;;3.40;99.90;;;;;;4929785;28;20282;-69
2021/12/06 11:24:01;;;;;;;39.88;18.77;;;3.40;99.90;;;;;;4924386;28;20114;-70
2021/12/06 11:26:31;;;;;;;38.72;16.95;;;3.30;99.90;;;;;;4932990;28;20058;-69
2021/12/06 11:29:17;;;;;;;33.38;15.80;;;3.40;99.90;;;;;;4927479;28;20079;-69
2021/12/06 11:31:50;;;;;;;34.78;17.40;;;3.40;99.90;;;;;;4932050;28;20093;-70
2021/12/06 11:34:15;;;;;;;36.72;16.40;;;3.40;99.90;;;;;;4927738;28;20396;-71
2021/12/06 11:36:43;;;;;;;33.10;16.83;;;3.40;99.90;;;;;;4934354;28;20517;-70
2021/12/06 11:39:16;;;;;;;36.22;16.95;;;3.40;99.90;;;;;;4929686;28;20066;-69
2021/12/06 11:41:45;;;;;;;33.53;14.48;;;3.40;99.90;;;;;;4934635;28;20716;-69
2021/12/06 11:44:33;;;;;;;36.00;15.23;;;3.40;99.90;;;;;;4925511;28;20065;-69
2021/12/06 11:47:12;;;;;;;32.03;14.88;;;3.40;99.90;;;;;;4932086;28;20043;-68
2021/12/06 11:49:46;;;;;;;35.13;15.73;;;3.50;99.90;;;;;;4934491;28;20055;-69
2021/12/06 11:52:17;;;;;;;31.08;14.40;;;3.50;99.90;;;;;;4925999;28;20082;-69
2021/12/06 11:54:57;;;;;;;34.00;15.20;;;3.50;99.90;;;;;;4931519;28;20058;-70
2021/12/06 11:57:36;;;;;;;30.02;14.45;;;3.50;99.90;;;;;;4928953;28;20094;-69
2021/12/06 12:00:16;;;;;;;29.63;15.63;;;3.50;99.90;;;;;;4935123;28;20044;-69
2021/12/06 12:03:02;;;;;;;34.63;15.60;;;3.50;99.90;;;;;;4921673;28;20869;-71
2021/12/06 12:05:37;;;;;;;31.42;15.32;;;3.50;99.90;;;;;;4930395;28;20139;-71
2021/12/06 12:08:12;;;;;;;31.23;14.45;;;3.40;99.90;;;;;;4933061;28;20047;-71
2021/12/06 12:10:44;;;;;;;35.58;16.25;;;3.80;99.90;;;;;;4930586;28;20086;-71
2021/12/06 12:13:12;;;;;;;36.92;16.40;;;3.50;99.90;;;;;;4939521;28;20062;-71
2021/12/06 12:15:38;;;;;;;33.17;16.33;;;3.50;99.90;;;;;;4949011;28;20120;-70
2021/12/06 12:18:04;;;;;;;35.55;16.38;;;3.50;99.90;;;;;;4953111;28;20054;-71
2021/12/06 12:20:31;;;;;;;33.92;16.48;;;3.70;99.90;;;;;;4950505;28;20603;-71
2021/12/06 12:23:02;;;;;;;33.20;16.00;;;3.50;99.90;;;;;;4947354;28;20106;-71
2021/12/06 12:25:33;;;;;;;30.98;16.35;;;3.50;99.90;;;;;;4950961;28;20043;-70
2021/12/06 12:28:13;;;;;;;34.85;16.60;;;3.60;99.90;;;;;;4952335;28;20077;-70
2021/12/06 12:30:40;;;;;;;35.15;16.63;;;4.80;99.90;;;;;;4955120;28;20058;-69
2021/12/06 12:33:08;;;;;;;37.83;17.27;;;3.60;99.90;;;;;;4946253;28;20502;-71
2021/12/06 12:35:36;;;;;;;38.45;17.58;;;3.60;99.90;;;;;;4951281;28;20055;-71
2021/12/06 12:38:03;;;;;;;33.47;16.02;;;3.60;99.90;;;;;;4954912;28;20051;-71
2021/12/06 12:40:42;;;;;;;33.30;16.48;;;3.60;99.90;;;;;;4954634;28;20053;-71
2021/12/06 12:43:12;;;;;;;34.05;17.33;;;3.70;99.90;;;;;;4947291;28;21763;-71
2021/12/06 12:45:44;;;;;;;35.60;16.42;;;3.70;99.90;;;;;;4957402;28;20077;-72
2021/12/06 12:48:11;;;;;;;34.92;16.13;;;3.80;99.90;;;;;;4951203;28;20487;-71
2021/12/06 12:50:38;;;;;;;33.88;15.77;;;3.80;99.90;;;;;;4957800;28;20078;-71
2021/12/06 12:53:14;;;;;;;35.08;16.63;;;3.80;99.90;;;;;;4949007;28;20051;-71
2021/12/06 12:55:49;;;;;;;34.63;15.60;;;3.80;99.90;;;;;;4953715;28;20558;-72